createdAt,value
2022-12-25T00:01:38.940Z,96.67
2022-12-25T00:04:05.517Z,96.86
2022-12-25T00:06:31.981Z,96.88
2022-12-25T00:08:58.411Z,96.90
2022-12-25T00:11:25.656Z,96.79
2022-12-25T00:13:52.049Z,96.78
2022-12-25T00:16:21.799Z,97.04
2022-12-25T00:18:48.557Z,96.85
2022-12-25T00:21:15.311Z,97.00
2022-12-25T00:23:41.991Z,96.83
2022-12-25T00:26:11.486Z,96.91
2022-12-25T00:28:38.624Z,96.82
2022-12-25T00:31:12.935Z,96.88
2022-12-25T00:33:41.268Z,96.71
2022-12-25T00:36:09.278Z,96.62
2022-12-25T00:38:37.152Z,96.72
2022-12-25T00:41:08.236Z,96.90
2022-12-25T00:43:36.374Z,96.90
2022-12-25T00:46:04.193Z,97.09
2022-12-25T00:48:31.429Z,97.08
2022-12-25T00:51:00.296Z,96.85
2022-12-25T00:53:27.310Z,96.90
2022-12-25T00:55:57.312Z,97.02
2022-12-25T00:58:24.723Z,97.06
2022-12-25T01:00:51.442Z,97.61
2022-12-25T01:03:18.603Z,97.45
2022-12-25T01:05:54.793Z,97.19
2022-12-25T01:08:21.151Z,97.02
2022-12-25T01:11:03.461Z,96.81
2022-12-25T01:13:31.755Z,96.72
2022-12-25T01:15:58.272Z,96.95
2022-12-25T01:18:25.969Z,96.94
2022-12-25T01:20:52.355Z,96.89
2022-12-25T01:23:18.787Z,96.92
2022-12-25T01:25:45.207Z,96.84
2022-12-25T01:28:11.586Z,96.98
2022-12-25T01:30:38.040Z,96.65
2022-12-25T01:33:04.806Z,96.89
2022-12-25T01:35:31.283Z,96.73
2022-12-25T01:37:57.726Z,96.76
2022-12-25T01:40:24.109Z,96.55
2022-12-25T01:42:50.520Z,96.66
2022-12-25T01:45:32.199Z,96.40
2022-12-25T01:47:59.179Z,96.38
2022-12-25T01:50:25.833Z,96.36
2022-12-25T01:52:52.654Z,96.30
2022-12-25T01:55:19.362Z,96.18
2022-12-25T01:57:45.995Z,96.20
2022-12-25T02:00:13.290Z,96.04
2022-12-25T02:02:40.870Z,96.13
2022-12-25T02:05:13.924Z,96.15
2022-12-25T02:07:41.338Z,96.38
2022-12-25T02:10:11.634Z,96.25
2022-12-25T02:12:38.183Z,96.08
2022-12-25T02:15:11.113Z,96.04
2022-12-25T02:17:58.777Z,96.48
2022-12-25T02:21:06.656Z,96.54
2022-12-25T02:23:50.936Z,96.63
2022-12-25T02:26:23.442Z,96.31
2022-12-25T02:29:01.564Z,96.13
2022-12-25T02:31:41.496Z,96.52
2022-12-25T02:34:20.742Z,96.75
2022-12-25T02:36:56.118Z,96.71
2022-12-25T02:39:50.732Z,96.61
2022-12-25T02:42:45.686Z,96.76
2022-12-25T02:45:33.086Z,96.95
2022-12-25T02:48:18.302Z,97.46
2022-12-25T02:51:03.314Z,97.42
2022-12-25T02:53:48.897Z,97.51
2022-12-25T02:56:34.438Z,97.57
2022-12-25T02:59:19.987Z,97.62
2022-12-25T03:02:05.309Z,97.55
2022-12-25T03:04:50.937Z,97.64
2022-12-25T03:07:21.533Z,97.49
2022-12-25T03:10:19.863Z,97.37
2022-12-25T03:12:52.345Z,97.41
2022-12-25T03:15:37.980Z,97.58
2022-12-25T03:18:09.824Z,97.45
2022-12-25T03:20:55.749Z,97.52
2022-12-25T03:23:44.322Z,97.63
2022-12-25T03:26:29.289Z,97.80
2022-12-25T03:28:55.704Z,98.04
2022-12-25T03:31:28.738Z,97.78
2022-12-25T03:34:23.051Z,97.79
2022-12-25T03:37:29.807Z,97.90
2022-12-25T03:40:30.367Z,97.61
2022-12-25T03:43:36.950Z,97.57
2022-12-25T03:46:23.692Z,97.41
2022-12-25T03:49:11.502Z,97.33
2022-12-25T03:51:57.563Z,97.09
2022-12-25T03:54:44.133Z,97.06
2022-12-25T03:57:29.920Z,96.93
2022-12-25T04:00:14.991Z,96.86
2022-12-25T04:02:59.937Z,96.75
2022-12-25T04:05:45.475Z,96.69
2022-12-25T04:08:30.551Z,96.83
2022-12-25T04:11:15.708Z,96.58
2022-12-25T04:14:00.775Z,96.67
2022-12-25T04:16:45.552Z,96.93
2022-12-25T04:19:30.566Z,97.34
2022-12-25T04:22:15.679Z,97.53
2022-12-25T04:25:00.625Z,97.36
2022-12-25T04:27:46.055Z,97.47
2022-12-25T04:30:31.415Z,97.19
2022-12-25T04:33:19.490Z,97.49
2022-12-25T04:36:06.246Z,97.57
2022-12-25T04:38:33.143Z,96.99
2022-12-25T04:41:00.765Z,96.96
2022-12-25T04:43:27.222Z,96.52
2022-12-25T04:45:54.855Z,96.73
2022-12-25T04:48:21.404Z,96.50
2022-12-25T04:50:48.090Z,95.93
2022-12-25T04:53:14.752Z,96.27
2022-12-25T04:55:41.134Z,96.37
2022-12-25T04:58:07.710Z,96.26
2022-12-25T05:00:34.164Z,96.23
2022-12-25T05:03:00.790Z,96.19
2022-12-25T05:05:27.334Z,96.20
2022-12-25T05:07:53.771Z,95.99
2022-12-25T05:10:20.404Z,96.17
2022-12-25T05:12:46.862Z,95.83
2022-12-25T05:15:13.293Z,95.54
2022-12-25T05:17:39.716Z,95.69
2022-12-25T05:20:06.780Z,95.53
2022-12-25T05:22:33.269Z,95.66
2022-12-25T05:24:59.705Z,95.76
2022-12-25T05:27:26.173Z,95.37
2022-12-25T05:29:52.601Z,95.84
2022-12-25T05:32:18.969Z,95.62
2022-12-25T05:34:45.410Z,95.73
2022-12-25T05:37:11.891Z,95.64
2022-12-25T05:39:38.433Z,95.54
2022-12-25T05:42:04.915Z,95.56
2022-12-25T05:44:31.310Z,95.67
2022-12-25T05:46:57.775Z,95.76
2022-12-25T05:49:24.266Z,95.81
2022-12-25T05:51:50.639Z,95.83
2022-12-25T05:54:17.100Z,95.54
2022-12-25T05:56:43.493Z,95.55
2022-12-25T05:59:09.969Z,95.25
2022-12-25T06:01:36.614Z,95.30
2022-12-25T06:04:07.082Z,95.28
2022-12-25T06:06:38.412Z,95.14
2022-12-25T06:09:04.775Z,95.15
2022-12-25T06:11:31.144Z,95.27
2022-12-25T06:13:57.576Z,95.26
2022-12-25T06:16:23.990Z,95.30
2022-12-25T06:18:54.257Z,95.12
2022-12-25T06:21:20.735Z,95.15
2022-12-25T06:23:47.333Z,94.98
2022-12-25T06:26:18.599Z,94.41
2022-12-25T06:28:45.383Z,94.70
2022-12-25T06:31:17.736Z,94.62
2022-12-25T06:33:44.803Z,94.86
2022-12-25T06:36:14.279Z,94.98
2022-12-25T06:38:41.066Z,94.89
2022-12-25T06:41:10.366Z,94.94
2022-12-25T06:43:37.530Z,94.84
2022-12-25T06:46:09.916Z,94.82
2022-12-25T06:48:37.398Z,94.76
2022-12-25T06:51:04.458Z,94.83
2022-12-25T06:53:38.857Z,94.89
2022-12-25T06:56:08.248Z,94.80
2022-12-25T06:58:34.654Z,94.88
2022-12-25T07:01:06.844Z,94.50
2022-12-25T07:03:33.757Z,94.66
2022-12-25T07:06:00.169Z,94.99
2022-12-25T07:08:26.533Z,95.11
2022-12-25T07:10:52.967Z,94.66
2022-12-25T07:13:19.386Z,94.66
2022-12-25T07:15:45.804Z,94.69
2022-12-25T07:18:12.182Z,94.84
2022-12-25T07:20:38.549Z,94.76
2022-12-25T07:23:05.004Z,94.63
2022-12-25T07:25:37.078Z,94.84
2022-12-25T07:28:04.028Z,94.35
2022-12-25T07:30:30.416Z,94.51
2022-12-25T07:32:57.427Z,94.41
2022-12-25T07:35:23.942Z,94.05
2022-12-25T07:37:50.405Z,94.44
2022-12-25T07:40:16.841Z,93.95
2022-12-25T07:42:43.250Z,94.13
2022-12-25T07:45:10.165Z,93.86
2022-12-25T07:47:36.532Z,93.84
2022-12-25T07:50:03.117Z,93.65
2022-12-25T07:52:29.542Z,93.78
2022-12-25T07:54:55.931Z,93.70
2022-12-25T07:57:22.386Z,93.60
2022-12-25T07:59:48.752Z,93.61
2022-12-25T08:02:15.462Z,93.27
2022-12-25T08:04:42.199Z,93.20
2022-12-25T08:07:08.706Z,93.25
2022-12-25T08:09:35.265Z,93.33
2022-12-25T08:12:01.632Z,93.00
2022-12-25T08:14:30.045Z,93.31
2022-12-25T08:16:56.531Z,93.38
2022-12-25T08:19:22.930Z,93.26
2022-12-25T08:21:49.363Z,93.53
2022-12-25T08:24:15.918Z,93.36
2022-12-25T08:26:42.434Z,93.48
2022-12-25T08:29:08.896Z,93.44
2022-12-25T08:31:38.354Z,93.34
2022-12-25T08:34:09.455Z,93.41
2022-12-25T08:36:36.385Z,93.31
2022-12-25T08:39:03.550Z,93.03
2022-12-25T08:41:30.628Z,93.34
2022-12-25T08:43:57.072Z,93.32
2022-12-25T08:46:23.866Z,93.37
2022-12-25T08:48:50.633Z,93.22
2022-12-25T08:51:20.185Z,93.18
2022-12-25T08:53:47.780Z,93.09
2022-12-25T08:56:14.839Z,93.09
2022-12-25T08:58:41.636Z,93.44
2022-12-25T09:01:08.564Z,93.10
2022-12-25T09:03:35.434Z,92.90
2022-12-25T09:06:04.215Z,92.84
2022-12-25T09:08:30.772Z,92.62
2022-12-25T09:11:01.714Z,92.60
2022-12-25T09:13:28.125Z,92.55
2022-12-25T09:15:54.528Z,92.76
2022-12-25T09:18:21.018Z,92.65
2022-12-25T09:20:47.389Z,93.05
2022-12-25T09:23:14.537Z,92.91
2022-12-25T09:25:41.034Z,92.72
2022-12-25T09:28:07.400Z,92.97
2022-12-25T09:30:33.854Z,92.76
2022-12-25T09:33:00.266Z,92.68
2022-12-25T09:35:26.778Z,92.71
2022-12-25T09:37:53.213Z,92.69
2022-12-25T09:40:21.708Z,92.52
2022-12-25T09:42:48.650Z,92.60
2022-12-25T09:45:18.816Z,92.83
2022-12-25T09:47:47.540Z,93.08
2022-12-25T09:50:34.406Z,93.10
2022-12-25T09:53:01.204Z,93.14
2022-12-25T09:55:31.242Z,92.92
2022-12-25T09:57:59.057Z,92.82
2022-12-25T10:00:29.269Z,92.88
2022-12-25T10:03:11.086Z,92.83
2022-12-25T10:06:15.853Z,92.83
2022-12-25T10:08:47.670Z,93.21
2022-12-25T10:11:30.976Z,93.44
2022-12-25T10:14:12.668Z,93.85
2022-12-25T10:16:58.269Z,93.91
2022-12-25T10:19:46.129Z,93.50
2022-12-25T10:22:45.790Z,93.39
2022-12-25T10:25:22.037Z,93.52
2022-12-25T10:28:15.451Z,93.79
2022-12-25T10:30:45.434Z,93.70
2022-12-25T10:33:17.141Z,93.59
2022-12-25T10:35:43.943Z,93.86
2022-12-25T10:38:16.326Z,93.44
2022-12-25T10:40:54.852Z,93.50
2022-12-25T10:43:25.735Z,93.75
2022-12-25T10:45:52.177Z,93.90
2022-12-25T10:48:25.834Z,93.97
2022-12-25T10:50:52.294Z,94.42
2022-12-25T10:53:29.187Z,93.98
2022-12-25T10:56:01.198Z,94.06
2022-12-25T10:58:28.258Z,94.55
2022-12-25T11:01:02.234Z,94.08
2022-12-25T11:03:32.020Z,94.17
2022-12-25T11:06:00.257Z,94.08
2022-12-25T11:08:30.090Z,94.19
2022-12-25T11:10:58.867Z,94.28
2022-12-25T11:13:27.632Z,94.04
2022-12-25T11:16:06.283Z,94.04
2022-12-25T11:18:50.405Z,94.17
2022-12-25T11:21:24.096Z,94.28
2022-12-25T11:24:03.122Z,94.12
2022-12-25T11:26:36.376Z,93.71
2022-12-25T11:29:03.583Z,94.19
2022-12-25T11:31:37.503Z,94.38
2022-12-25T11:34:07.980Z,94.59
2022-12-25T11:36:52.049Z,94.26
2022-12-25T11:39:31.820Z,94.70
2022-12-25T11:42:19.330Z,94.74
2022-12-25T11:44:49.184Z,94.54
2022-12-25T11:47:21.224Z,94.66
2022-12-25T11:50:00.140Z,94.88
2022-12-25T11:52:30.256Z,94.62
2022-12-25T11:55:08.444Z,94.48
2022-12-25T11:57:35.695Z,94.26
2022-12-25T12:00:06.929Z,94.17
2022-12-25T12:02:56.131Z,94.19
2022-12-25T12:05:28.497Z,94.39
2022-12-25T12:07:59.357Z,94.34
2022-12-25T12:10:38.163Z,94.23
2022-12-25T12:13:32.494Z,94.22
2022-12-25T12:15:59.132Z,94.41
2022-12-25T12:18:25.520Z,94.60
2022-12-25T12:21:27.374Z,94.46
2022-12-25T12:24:04.271Z,94.60
2022-12-25T12:26:36.651Z,94.59
2022-12-25T12:29:04.598Z,94.43
2022-12-25T12:31:46.517Z,94.40
2022-12-25T12:34:26.192Z,94.76
2022-12-25T12:36:59.806Z,94.83
2022-12-25T12:39:34.870Z,94.83
2022-12-25T12:42:01.598Z,94.63
2022-12-25T12:44:32.042Z,94.65
2022-12-25T12:46:58.523Z,94.73
2022-12-25T12:49:30.384Z,94.66
2022-12-25T12:52:23.774Z,94.58
2022-12-25T12:55:02.913Z,94.59
2022-12-25T12:57:33.106Z,94.85
2022-12-25T13:00:08.642Z,94.68
2022-12-25T13:03:05.259Z,94.67
2022-12-25T13:05:58.458Z,94.56
2022-12-25T13:08:44.721Z,94.89
2022-12-25T13:11:23.936Z,94.81
2022-12-25T13:13:55.093Z,94.66
2022-12-25T13:16:33.101Z,94.42
2022-12-25T13:19:03.764Z,94.72
2022-12-25T13:21:30.469Z,94.73
2022-12-25T13:24:01.824Z,94.85
2022-12-25T13:26:29.046Z,94.94
2022-12-25T13:28:56.212Z,94.99
2022-12-25T13:31:27.440Z,94.97
2022-12-25T13:34:03.002Z,94.75
2022-12-25T13:36:35.168Z,94.90
2022-12-25T13:39:01.701Z,94.78
2022-12-25T13:41:59.368Z,95.02
2022-12-25T13:44:27.845Z,95.27
2022-12-25T13:46:54.261Z,95.12
2022-12-25T13:49:23.246Z,95.31
2022-12-25T13:51:50.325Z,95.36
2022-12-25T13:54:17.507Z,95.35
2022-12-25T13:56:52.192Z,95.19
2022-12-25T13:59:21.000Z,95.45
2022-12-25T14:01:48.802Z,95.38
2022-12-25T14:04:17.527Z,95.46
2022-12-25T14:06:44.068Z,95.96
2022-12-25T14:09:12.116Z,95.59
2022-12-25T14:11:39.304Z,95.04
2022-12-25T14:14:20.349Z,94.77
2022-12-25T14:16:49.325Z,95.29
2022-12-25T14:19:28.198Z,95.27
2022-12-25T14:22:16.465Z,95.36
2022-12-25T14:24:42.959Z,95.12
2022-12-25T14:27:19.791Z,95.24
2022-12-25T14:29:47.142Z,95.33
2022-12-25T14:32:19.304Z,95.40
2022-12-25T14:34:47.591Z,95.21
2022-12-25T14:37:18.201Z,95.57
2022-12-25T14:39:47.978Z,95.87
2022-12-25T14:42:23.145Z,95.43
2022-12-25T14:44:59.810Z,95.30
2022-12-25T14:47:26.879Z,95.34
2022-12-25T14:49:54.522Z,95.27
2022-12-25T14:52:31.480Z,95.10
2022-12-25T14:55:00.701Z,95.21
2022-12-25T14:57:30.256Z,95.19
2022-12-25T14:59:59.919Z,95.36
2022-12-25T15:02:26.766Z,95.58
2022-12-25T15:04:53.580Z,95.16
2022-12-25T15:07:38.141Z,95.32
2022-12-25T15:12:53.613Z,95.51
2022-12-25T15:15:20.053Z,95.40
2022-12-25T15:17:46.437Z,95.25
2022-12-25T15:20:13.815Z,95.38
2022-12-25T15:23:10.334Z,95.60
2022-12-25T15:25:27.718Z,95.57
2022-12-25T15:27:54.412Z,95.55
2022-12-25T15:30:20.802Z,95.29
2022-12-25T15:32:47.321Z,95.15
2022-12-25T15:35:16.613Z,95.21
2022-12-25T15:37:43.066Z,95.48
2022-12-25T15:40:12.522Z,95.25
2022-12-25T15:42:39.249Z,95.48
2022-12-25T15:45:06.629Z,95.35
2022-12-25T15:47:33.361Z,95.29
2022-12-25T15:49:59.732Z,96.04
2022-12-25T15:52:26.159Z,95.43
2022-12-25T15:54:54.062Z,95.22
2022-12-25T15:57:22.234Z,95.43
2022-12-25T15:59:48.654Z,95.08
2022-12-25T16:02:17.784Z,95.21
2022-12-25T16:04:44.383Z,95.00
2022-12-25T16:07:15.704Z,95.24
2022-12-25T16:09:42.213Z,95.36
2022-12-25T16:12:08.605Z,95.55
2022-12-25T16:14:35.093Z,95.38
2022-12-25T16:17:01.479Z,95.50
2022-12-25T16:19:30.655Z,95.52
2022-12-25T16:21:57.128Z,95.18
2022-12-25T16:24:23.736Z,95.51
2022-12-25T16:26:50.111Z,95.36
2022-12-25T16:29:16.609Z,95.40
2022-12-25T16:31:42.993Z,95.33
2022-12-25T16:34:09.850Z,95.07
2022-12-25T16:36:36.849Z,95.21
2022-12-25T16:39:04.138Z,95.29
2022-12-25T16:41:30.719Z,95.40
2022-12-25T16:44:02.942Z,95.52
2022-12-25T16:46:29.399Z,95.21
2022-12-25T16:48:55.780Z,95.46
2022-12-25T16:51:22.229Z,95.19
2022-12-25T16:53:48.621Z,94.96
2022-12-25T16:56:18.167Z,94.95
2022-12-25T16:58:48.520Z,94.98
2022-12-25T17:01:17.772Z,94.85
2022-12-25T17:03:44.530Z,94.93
2022-12-25T17:06:15.797Z,94.80
2022-12-25T17:08:42.708Z,94.98
2022-12-25T17:11:09.344Z,94.67
2022-12-25T17:13:35.855Z,94.86
2022-12-25T17:16:17.757Z,94.60
2022-12-25T17:18:44.512Z,94.86
2022-12-25T17:21:11.417Z,94.75
2022-12-25T17:23:38.401Z,94.96
2022-12-25T17:26:05.370Z,95.20
2022-12-25T17:28:32.305Z,95.18
2022-12-25T17:31:06.805Z,95.08
2022-12-25T17:33:36.252Z,95.35
2022-12-25T17:36:04.461Z,95.23
2022-12-25T17:38:32.034Z,95.40
2022-12-25T17:40:59.666Z,95.13
2022-12-25T17:43:26.154Z,95.24
2022-12-25T17:45:52.670Z,95.39
2022-12-25T17:48:19.231Z,95.24
2022-12-25T17:50:46.237Z,95.35
2022-12-25T17:53:12.662Z,95.14
2022-12-25T17:55:41.090Z,95.11
2022-12-25T17:58:08.368Z,95.11
2022-12-25T18:00:35.597Z,95.22
2022-12-25T18:03:10.542Z,95.29
2022-12-25T18:05:37.856Z,95.24
2022-12-25T18:08:05.235Z,95.04
2022-12-25T18:10:36.697Z,95.46
2022-12-25T18:13:03.266Z,95.22
2022-12-25T18:15:30.589Z,95.18
2022-12-25T18:17:57.053Z,95.15
2022-12-25T18:20:23.578Z,95.12
2022-12-25T18:22:50.000Z,95.23
2022-12-25T18:25:16.443Z,95.28
2022-12-25T18:27:42.874Z,95.12
2022-12-25T18:30:09.912Z,94.96
2022-12-25T18:32:36.941Z,95.09
2022-12-25T18:35:03.448Z,95.14
2022-12-25T18:37:33.112Z,95.24
2022-12-25T18:40:04.873Z,95.03
2022-12-25T18:42:40.112Z,94.64
2022-12-25T18:45:08.728Z,94.83
2022-12-25T18:47:35.249Z,94.79
2022-12-25T18:50:01.728Z,95.02
2022-12-25T18:52:47.308Z,95.28
2022-12-25T18:55:14.625Z,95.24
2022-12-25T18:57:41.166Z,95.48
2022-12-25T19:00:08.277Z,94.91
2022-12-25T19:02:34.932Z,95.26
2022-12-25T19:05:01.497Z,95.13
2022-12-25T19:07:27.900Z,95.19
2022-12-25T19:09:54.282Z,95.27
2022-12-25T19:12:20.731Z,95.33
2022-12-25T19:14:48.373Z,94.80
2022-12-25T19:17:15.921Z,95.13
2022-12-25T19:19:42.380Z,95.25
2022-12-25T19:22:08.837Z,95.38
2022-12-25T19:24:36.104Z,95.74
2022-12-25T19:27:03.101Z,95.46
2022-12-25T19:29:29.617Z,95.52
2022-12-25T19:31:56.459Z,95.15
2022-12-25T19:34:23.065Z,95.22
2022-12-25T19:36:49.516Z,95.41
2022-12-25T19:39:15.896Z,95.34
2022-12-25T19:41:42.441Z,95.32
2022-12-25T19:44:08.818Z,95.34
2022-12-25T19:46:37.707Z,95.46
2022-12-25T19:49:04.710Z,95.23
2022-12-25T19:51:37.066Z,95.23
2022-12-25T19:54:04.722Z,95.44
2022-12-25T19:56:31.660Z,95.64
2022-12-25T19:58:58.522Z,95.44
2022-12-25T20:01:26.725Z,95.29
2022-12-25T20:03:53.757Z,95.80
2022-12-25T20:06:26.343Z,95.46
2022-12-25T20:08:56.035Z,95.27
2022-12-25T20:11:23.640Z,95.31
2022-12-25T20:13:50.283Z,95.26
2022-12-25T20:16:17.060Z,95.39
2022-12-25T20:18:43.590Z,95.31
2022-12-25T20:21:18.368Z,94.98
2022-12-25T20:23:47.180Z,95.02
2022-12-25T20:26:14.603Z,95.08
2022-12-25T20:28:41.967Z,95.34
2022-12-25T20:31:11.630Z,95.20
2022-12-25T20:33:38.094Z,95.16
2022-12-25T20:36:05.392Z,95.23
2022-12-25T20:38:31.879Z,95.22
2022-12-25T20:41:26.309Z,95.31
2022-12-25T20:43:47.711Z,95.37
2022-12-25T20:46:14.332Z,95.19
2022-12-25T20:48:40.808Z,95.13
2022-12-25T20:51:18.617Z,95.28
2022-12-25T20:53:45.206Z,95.17
2022-12-25T20:56:13.109Z,95.26
2022-12-25T20:58:39.818Z,95.25
2022-12-25T21:01:08.255Z,95.13
2022-12-25T21:03:35.100Z,95.37
2022-12-25T21:06:01.824Z,95.58
2022-12-25T21:08:28.566Z,95.72
2022-12-25T21:11:00.471Z,95.52
2022-12-25T21:13:32.009Z,95.75
2022-12-25T21:15:58.745Z,95.69
2022-12-25T21:18:27.036Z,95.40
2022-12-25T21:20:56.943Z,95.37
2022-12-25T21:23:23.314Z,95.46
2022-12-25T21:25:49.799Z,95.50
2022-12-25T21:28:16.889Z,95.71
2022-12-25T21:30:43.333Z,95.52
2022-12-25T21:33:32.012Z,95.36
2022-12-25T21:36:06.763Z,95.16
2022-12-25T21:38:33.323Z,95.62
2022-12-25T21:41:07.677Z,95.12
2022-12-25T21:43:35.179Z,95.50
2022-12-25T21:46:06.551Z,95.32
2022-12-25T21:48:34.334Z,95.55
2022-12-25T21:51:41.834Z,95.85
2022-12-25T21:54:08.686Z,96.35
2022-12-25T21:56:43.461Z,95.88
2022-12-25T21:59:13.127Z,96.11
2022-12-25T22:01:39.606Z,95.94
2022-12-25T22:04:07.786Z,95.94
2022-12-25T22:06:53.320Z,96.06
2022-12-25T22:09:20.352Z,96.16
2022-12-25T22:12:05.360Z,96.45
2022-12-25T22:14:53.740Z,96.64
2022-12-25T22:17:48.356Z,96.95
2022-12-25T22:20:19.172Z,96.93
2022-12-25T22:22:46.128Z,97.29
2022-12-25T22:25:13.682Z,97.00
2022-12-25T22:27:41.575Z,96.79
2022-12-25T22:30:11.908Z,96.96
2022-12-25T22:32:38.779Z,96.90
2022-12-25T22:35:06.061Z,97.15
2022-12-25T22:37:32.661Z,97.28
2022-12-25T22:40:01.179Z,96.96
2022-12-25T22:42:28.180Z,97.02
2022-12-25T22:44:54.625Z,97.02
2022-12-25T22:47:21.161Z,96.87
2022-12-25T22:49:47.564Z,96.71
2022-12-25T22:52:13.938Z,96.74
2022-12-25T22:54:40.489Z,96.79
2022-12-25T22:57:07.040Z,96.81
2022-12-25T22:59:33.525Z,96.84
2022-12-25T23:02:00.631Z,96.80
2022-12-25T23:04:28.128Z,96.75
2022-12-25T23:06:54.650Z,96.47
2022-12-25T23:09:24.878Z,96.73
2022-12-25T23:11:51.465Z,96.53
2022-12-25T23:14:36.494Z,96.61
2022-12-25T23:17:02.932Z,96.73
2022-12-25T23:19:48.036Z,96.75
2022-12-25T23:22:32.720Z,96.99
2022-12-25T23:25:17.766Z,97.03
2022-12-25T23:27:44.946Z,97.09
2022-12-25T23:30:16.126Z,97.03
2022-12-25T23:32:43.591Z,97.20
2022-12-25T23:35:10.893Z,97.02
2022-12-25T23:37:37.312Z,96.73
2022-12-25T23:40:04.058Z,96.66
2022-12-25T23:42:30.437Z,96.79
2022-12-25T23:44:56.874Z,96.96
2022-12-25T23:47:23.319Z,96.95
2022-12-25T23:49:49.695Z,97.13
2022-12-25T23:52:16.133Z,97.13
2022-12-25T23:54:42.576Z,96.84
2022-12-25T23:57:09.013Z,97.13
2022-12-25T23:59:35.588Z,97.31
